sensor_id;sensor_type;location;lat;lon;timestamp;P1;durP1;ratioP1;P2;durP2;ratioP2
20449;SDS011;10384;51.940;8.432;2024-01-27T00:01:34;12.90;;;2.17;;
20449;SDS011;10384;51.940;8.432;2024-01-27T00:04:00;9.83;;;1.67;;
20449;SDS011;10384;51.940;8.432;2024-01-27T00:06:26;9.00;;;2.10;;
20449;SDS011;10384;51.940;8.432;2024-01-27T00:08:52;6.90;;;1.27;;
20449;SDS011;10384;51.940;8.432;2024-01-27T00:11:18;10.50;;;1.63;;
20449;SDS011;10384;51.940;8.432;2024-01-27T00:13:44;9.20;;;2.40;;
20449;SDS011;10384;51.940;8.432;2024-01-27T00:16:10;9.47;;;1.83;;
20449;SDS011;10384;51.940;8.432;2024-01-27T00:18:36;6.40;;;1.50;;
20449;SDS011;10384;51.940;8.432;2024-01-27T00:21:03;7.87;;;1.70;;
20449;SDS011;10384;51.940;8.432;2024-01-27T00:23:29;12.13;;;1.90;;
20449;SDS011;10384;51.940;8.432;2024-01-27T00:25:55;9.80;;;1.80;;
20449;SDS011;10384;51.940;8.432;2024-01-27T00:28:21;9.73;;;2.27;;
20449;SDS011;10384;51.940;8.432;2024-01-27T00:30:47;12.53;;;1.80;;
20449;SDS011;10384;51.940;8.432;2024-01-27T00:33:13;11.13;;;2.47;;
20449;SDS011;10384;51.940;8.432;2024-01-27T00:35:39;8.53;;;2.27;;
20449;SDS011;10384;51.940;8.432;2024-01-27T00:38:05;8.03;;;2.00;;
20449;SDS011;10384;51.940;8.432;2024-01-27T00:40:31;13.97;;;3.07;;
20449;SDS011;10384;51.940;8.432;2024-01-27T00:42:57;7.30;;;1.40;;
20449;SDS011;10384;51.940;8.432;2024-01-27T00:45:23;13.20;;;2.00;;
20449;SDS011;10384;51.940;8.432;2024-01-27T00:47:52;9.27;;;1.70;;
20449;SDS011;10384;51.940;8.432;2024-01-27T00:50:18;11.07;;;1.77;;
20449;SDS011;10384;51.940;8.432;2024-01-27T00:52:44;15.50;;;2.17;;
20449;SDS011;10384;51.940;8.432;2024-01-27T00:55:10;7.87;;;1.83;;
20449;SDS011;10384;51.940;8.432;2024-01-27T00:57:36;9.10;;;1.63;;
20449;SDS011;10384;51.940;8.432;2024-01-27T01:00:06;11.93;;;1.70;;
20449;SDS011;10384;51.940;8.432;2024-01-27T01:02:33;10.93;;;1.97;;
20449;SDS011;10384;51.940;8.432;2024-01-27T01:04:59;8.67;;;1.83;;
20449;SDS011;10384;51.940;8.432;2024-01-27T01:07:24;10.17;;;1.47;;
20449;SDS011;10384;51.940;8.432;2024-01-27T01:09:51;9.07;;;1.70;;
20449;SDS011;10384;51.940;8.432;2024-01-27T01:12:17;6.07;;;2.20;;
20449;SDS011;10384;51.940;8.432;2024-01-27T01:14:43;10.13;;;2.20;;
20449;SDS011;10384;51.940;8.432;2024-01-27T01:17:09;9.30;;;1.87;;
20449;SDS011;10384;51.940;8.432;2024-01-27T01:19:38;7.50;;;1.40;;
20449;SDS011;10384;51.940;8.432;2024-01-27T01:22:04;12.50;;;2.23;;
20449;SDS011;10384;51.940;8.432;2024-01-27T01:24:30;7.87;;;1.87;;
20449;SDS011;10384;51.940;8.432;2024-01-27T01:26:56;8.87;;;1.80;;
20449;SDS011;10384;51.940;8.432;2024-01-27T01:29:22;11.50;;;2.40;;
20449;SDS011;10384;51.940;8.432;2024-01-27T01:31:48;10.63;;;1.60;;
20449;SDS011;10384;51.940;8.432;2024-01-27T01:34:14;7.47;;;1.43;;
20449;SDS011;10384;51.940;8.432;2024-01-27T01:36:41;12.63;;;1.90;;
20449;SDS011;10384;51.940;8.432;2024-01-27T01:39:07;10.87;;;2.13;;
20449;SDS011;10384;51.940;8.432;2024-01-27T01:41:33;17.30;;;2.67;;
20449;SDS011;10384;51.940;8.432;2024-01-27T01:43:59;9.17;;;2.30;;
20449;SDS011;10384;51.940;8.432;2024-01-27T01:46:25;10.73;;;2.10;;
20449;SDS011;10384;51.940;8.432;2024-01-27T01:48:51;14.10;;;2.30;;
20449;SDS011;10384;51.940;8.432;2024-01-27T01:51:17;8.50;;;1.60;;
20449;SDS011;10384;51.940;8.432;2024-01-27T01:53:45;8.33;;;2.00;;
20449;SDS011;10384;51.940;8.432;2024-01-27T01:56:13;7.93;;;2.03;;
20449;SDS011;10384;51.940;8.432;2024-01-27T01:58:39;12.50;;;1.87;;
20449;SDS011;10384;51.940;8.432;2024-01-27T02:01:06;10.90;;;3.20;;
20449;SDS011;10384;51.940;8.432;2024-01-27T02:03:32;7.30;;;1.50;;
20449;SDS011;10384;51.940;8.432;2024-01-27T02:05:58;9.93;;;2.00;;
20449;SDS011;10384;51.940;8.432;2024-01-27T02:08:24;11.87;;;3.07;;
20449;SDS011;10384;51.940;8.432;2024-01-27T02:10:50;10.60;;;2.13;;
20449;SDS011;10384;51.940;8.432;2024-01-27T02:13:17;9.47;;;1.90;;
20449;SDS011;10384;51.940;8.432;2024-01-27T02:15:44;9.10;;;1.67;;
20449;SDS011;10384;51.940;8.432;2024-01-27T02:18:10;9.77;;;2.60;;
20449;SDS011;10384;51.940;8.432;2024-01-27T02:20:36;14.60;;;2.70;;
20449;SDS011;10384;51.940;8.432;2024-01-27T02:23:02;11.23;;;2.20;;
20449;SDS011;10384;51.940;8.432;2024-01-27T02:25:29;9.20;;;2.00;;
20449;SDS011;10384;51.940;8.432;2024-01-27T02:27:55;12.67;;;2.23;;
20449;SDS011;10384;51.940;8.432;2024-01-27T02:30:21;13.90;;;2.67;;
20449;SDS011;10384;51.940;8.432;2024-01-27T02:32:47;11.20;;;2.10;;
20449;SDS011;10384;51.940;8.432;2024-01-27T02:35:13;10.97;;;2.40;;
20449;SDS011;10384;51.940;8.432;2024-01-27T02:37:40;7.93;;;2.63;;
20449;SDS011;10384;51.940;8.432;2024-01-27T02:40:06;10.43;;;2.17;;
20449;SDS011;10384;51.940;8.432;2024-01-27T02:42:32;15.33;;;2.60;;
20449;SDS011;10384;51.940;8.432;2024-01-27T02:44:59;9.13;;;2.63;;
20449;SDS011;10384;51.940;8.432;2024-01-27T02:47:25;10.73;;;2.20;;
20449;SDS011;10384;51.940;8.432;2024-01-27T02:49:51;6.57;;;2.10;;
20449;SDS011;10384;51.940;8.432;2024-01-27T02:52:17;11.33;;;3.03;;
20449;SDS011;10384;51.940;8.432;2024-01-27T02:54:43;8.93;;;1.93;;
20449;SDS011;10384;51.940;8.432;2024-01-27T02:57:09;16.63;;;2.27;;
20449;SDS011;10384;51.940;8.432;2024-01-27T02:59:35;11.17;;;2.60;;
20449;SDS011;10384;51.940;8.432;2024-01-27T03:02:01;7.80;;;2.17;;
20449;SDS011;10384;51.940;8.432;2024-01-27T03:04:27;8.83;;;2.40;;
20449;SDS011;10384;51.940;8.432;2024-01-27T03:06:53;11.63;;;2.80;;
20449;SDS011;10384;51.940;8.432;2024-01-27T03:09:19;11.07;;;2.70;;
20449;SDS011;10384;51.940;8.432;2024-01-27T03:11:45;11.27;;;3.00;;
20449;SDS011;10384;51.940;8.432;2024-01-27T03:14:11;8.53;;;2.73;;
20449;SDS011;10384;51.940;8.432;2024-01-27T03:16:37;7.53;;;2.30;;
20449;SDS011;10384;51.940;8.432;2024-01-27T03:19:04;11.10;;;2.50;;
20449;SDS011;10384;51.940;8.432;2024-01-27T03:21:30;11.93;;;2.47;;
20449;SDS011;10384;51.940;8.432;2024-01-27T03:23:56;9.50;;;2.57;;
20449;SDS011;10384;51.940;8.432;2024-01-27T03:26:22;8.57;;;2.50;;
20449;SDS011;10384;51.940;8.432;2024-01-27T03:28:48;10.03;;;2.73;;
20449;SDS011;10384;51.940;8.432;2024-01-27T03:31:14;8.93;;;2.30;;
20449;SDS011;10384;51.940;8.432;2024-01-27T03:33:39;6.63;;;2.30;;
20449;SDS011;10384;51.940;8.432;2024-01-27T03:36:09;10.20;;;2.10;;
20449;SDS011;10384;51.940;8.432;2024-01-27T03:38:36;7.70;;;2.70;;
20449;SDS011;10384;51.940;8.432;2024-01-27T03:41:02;8.63;;;2.90;;
20449;SDS011;10384;51.940;8.432;2024-01-27T03:43:28;6.77;;;2.77;;
20449;SDS011;10384;51.940;8.432;2024-01-27T03:45:56;6.67;;;2.17;;
20449;SDS011;10384;51.940;8.432;2024-01-27T03:48:21;7.93;;;2.30;;
20449;SDS011;10384;51.940;8.432;2024-01-27T03:50:47;6.53;;;2.33;;
20449;SDS011;10384;51.940;8.432;2024-01-27T03:53:13;7.37;;;2.77;;
20449;SDS011;10384;51.940;8.432;2024-01-27T03:55:39;9.00;;;2.60;;
20449;SDS011;10384;51.940;8.432;2024-01-27T03:58:05;7.33;;;2.77;;
20449;SDS011;10384;51.940;8.432;2024-01-27T04:00:31;7.10;;;2.30;;
20449;SDS011;10384;51.940;8.432;2024-01-27T04:02:58;7.47;;;2.37;;
20449;SDS011;10384;51.940;8.432;2024-01-27T04:05:25;10.00;;;2.50;;
20449;SDS011;10384;51.940;8.432;2024-01-27T04:07:51;7.03;;;2.90;;
20449;SDS011;10384;51.940;8.432;2024-01-27T04:10:17;5.57;;;2.50;;
20449;SDS011;10384;51.940;8.432;2024-01-27T04:12:43;16.77;;;2.80;;
20449;SDS011;10384;51.940;8.432;2024-01-27T04:15:10;7.90;;;2.40;;
20449;SDS011;10384;51.940;8.432;2024-01-27T04:17:39;6.70;;;2.40;;
20449;SDS011;10384;51.940;8.432;2024-01-27T04:20:05;11.13;;;2.57;;
20449;SDS011;10384;51.940;8.432;2024-01-27T04:22:32;8.63;;;3.00;;
20449;SDS011;10384;51.940;8.432;2024-01-27T04:24:58;7.83;;;2.50;;
20449;SDS011;10384;51.940;8.432;2024-01-27T04:27:24;18.00;;;3.03;;
20449;SDS011;10384;51.940;8.432;2024-01-27T04:29:50;7.27;;;3.37;;
20449;SDS011;10384;51.940;8.432;2024-01-27T04:32:16;10.77;;;3.00;;
20449;SDS011;10384;51.940;8.432;2024-01-27T04:34:42;13.63;;;3.50;;
20449;SDS011;10384;51.940;8.432;2024-01-27T04:37:08;9.23;;;3.07;;
20449;SDS011;10384;51.940;8.432;2024-01-27T04:39:34;11.43;;;3.10;;
20449;SDS011;10384;51.940;8.432;2024-01-27T04:42:00;13.53;;;3.57;;
20449;SDS011;10384;51.940;8.432;2024-01-27T04:44:26;9.00;;;2.67;;
20449;SDS011;10384;51.940;8.432;2024-01-27T04:46:52;10.57;;;3.83;;
20449;SDS011;10384;51.940;8.432;2024-01-27T04:49:18;16.20;;;3.67;;
20449;SDS011;10384;51.940;8.432;2024-01-27T04:51:44;17.17;;;3.93;;
20449;SDS011;10384;51.940;8.432;2024-01-27T04:54:10;14.83;;;3.40;;
20449;SDS011;10384;51.940;8.432;2024-01-27T04:56:36;13.10;;;3.77;;
20449;SDS011;10384;51.940;8.432;2024-01-27T04:59:02;14.67;;;3.87;;
20449;SDS011;10384;51.940;8.432;2024-01-27T05:01:28;12.57;;;3.63;;
20449;SDS011;10384;51.940;8.432;2024-01-27T05:03:54;11.57;;;3.53;;
20449;SDS011;10384;51.940;8.432;2024-01-27T05:06:20;14.50;;;3.90;;
20449;SDS011;10384;51.940;8.432;2024-01-27T05:08:46;7.93;;;3.40;;
20449;SDS011;10384;51.940;8.432;2024-01-27T05:11:12;12.07;;;3.67;;
20449;SDS011;10384;51.940;8.432;2024-01-27T05:13:39;13.70;;;3.70;;
20449;SDS011;10384;51.940;8.432;2024-01-27T05:16:05;8.43;;;2.90;;
20449;SDS011;10384;51.940;8.432;2024-01-27T05:18:31;11.10;;;3.10;;
20449;SDS011;10384;51.940;8.432;2024-01-27T05:20:57;11.40;;;3.20;;
20449;SDS011;10384;51.940;8.432;2024-01-27T05:23:23;7.53;;;3.30;;
20449;SDS011;10384;51.940;8.432;2024-01-27T05:25:50;12.40;;;2.87;;
20449;SDS011;10384;51.940;8.432;2024-01-27T05:28:16;8.87;;;2.87;;
20449;SDS011;10384;51.940;8.432;2024-01-27T05:30:42;11.20;;;3.50;;
20449;SDS011;10384;51.940;8.432;2024-01-27T05:33:09;6.17;;;2.87;;
20449;SDS011;10384;51.940;8.432;2024-01-27T05:35:35;9.97;;;3.20;;
20449;SDS011;10384;51.940;8.432;2024-01-27T05:38:01;10.07;;;3.43;;
20449;SDS011;10384;51.940;8.432;2024-01-27T05:40:27;7.93;;;3.60;;
20449;SDS011;10384;51.940;8.432;2024-01-27T05:42:53;6.73;;;3.10;;
20449;SDS011;10384;51.940;8.432;2024-01-27T05:45:19;13.87;;;3.03;;
20449;SDS011;10384;51.940;8.432;2024-01-27T05:47:45;6.90;;;3.27;;
20449;SDS011;10384;51.940;8.432;2024-01-27T05:50:11;9.53;;;3.17;;
20449;SDS011;10384;51.940;8.432;2024-01-27T05:52:37;11.50;;;3.17;;
20449;SDS011;10384;51.940;8.432;2024-01-27T05:55:03;13.63;;;4.20;;
20449;SDS011;10384;51.940;8.432;2024-01-27T05:57:31;12.60;;;3.33;;
20449;SDS011;10384;51.940;8.432;2024-01-27T05:59:57;10.63;;;3.73;;
20449;SDS011;10384;51.940;8.432;2024-01-27T06:02:23;13.27;;;3.63;;
20449;SDS011;10384;51.940;8.432;2024-01-27T06:04:49;10.87;;;3.10;;
20449;SDS011;10384;51.940;8.432;2024-01-27T06:07:15;13.73;;;3.03;;
20449;SDS011;10384;51.940;8.432;2024-01-27T06:09:41;6.27;;;3.10;;
20449;SDS011;10384;51.940;8.432;2024-01-27T06:12:07;16.37;;;3.63;;
20449;SDS011;10384;51.940;8.432;2024-01-27T06:14:33;9.93;;;3.07;;
20449;SDS011;10384;51.940;8.432;2024-01-27T06:17:00;10.93;;;3.17;;
20449;SDS011;10384;51.940;8.432;2024-01-27T06:19:26;10.67;;;3.70;;
20449;SDS011;10384;51.940;8.432;2024-01-27T06:21:52;8.07;;;3.30;;
20449;SDS011;10384;51.940;8.432;2024-01-27T06:24:18;10.80;;;3.70;;
20449;SDS011;10384;51.940;8.432;2024-01-27T06:26:44;11.93;;;3.47;;
20449;SDS011;10384;51.940;8.432;2024-01-27T06:29:10;12.50;;;4.90;;
20449;SDS011;10384;51.940;8.432;2024-01-27T06:31:36;15.73;;;4.30;;
20449;SDS011;10384;51.940;8.432;2024-01-27T06:34:02;11.73;;;3.80;;
20449;SDS011;10384;51.940;8.432;2024-01-27T06:36:28;15.00;;;4.03;;
20449;SDS011;10384;51.940;8.432;2024-01-27T06:38:55;16.57;;;4.10;;
20449;SDS011;10384;51.940;8.432;2024-01-27T06:41:21;12.97;;;4.27;;
20449;SDS011;10384;51.940;8.432;2024-01-27T06:43:47;13.57;;;4.40;;
20449;SDS011;10384;51.940;8.432;2024-01-27T06:46:13;11.30;;;4.47;;
20449;SDS011;10384;51.940;8.432;2024-01-27T06:48:39;16.90;;;4.60;;
20449;SDS011;10384;51.940;8.432;2024-01-27T06:51:05;15.27;;;4.70;;
20449;SDS011;10384;51.940;8.432;2024-01-27T06:53:31;13.40;;;4.67;;
20449;SDS011;10384;51.940;8.432;2024-01-27T06:55:57;8.13;;;3.90;;
20449;SDS011;10384;51.940;8.432;2024-01-27T06:58:23;13.63;;;4.80;;
20449;SDS011;10384;51.940;8.432;2024-01-27T07:00:49;10.13;;;4.40;;
20449;SDS011;10384;51.940;8.432;2024-01-27T07:03:15;10.80;;;4.13;;
20449;SDS011;10384;51.940;8.432;2024-01-27T07:05:41;11.30;;;4.67;;
20449;SDS011;10384;51.940;8.432;2024-01-27T07:08:07;15.03;;;4.63;;
20449;SDS011;10384;51.940;8.432;2024-01-27T07:10:36;13.23;;;4.73;;
20449;SDS011;10384;51.940;8.432;2024-01-27T07:13:02;11.77;;;4.50;;
20449;SDS011;10384;51.940;8.432;2024-01-27T07:15:31;15.63;;;4.77;;
20449;SDS011;10384;51.940;8.432;2024-01-27T07:17:57;12.27;;;4.37;;
20449;SDS011;10384;51.940;8.432;2024-01-27T07:20:23;14.23;;;5.17;;
20449;SDS011;10384;51.940;8.432;2024-01-27T07:22:49;13.90;;;5.47;;
20449;SDS011;10384;51.940;8.432;2024-01-27T07:25:15;13.53;;;4.67;;
20449;SDS011;10384;51.940;8.432;2024-01-27T07:27:41;10.70;;;5.07;;
20449;SDS011;10384;51.940;8.432;2024-01-27T07:30:07;14.53;;;5.10;;
20449;SDS011;10384;51.940;8.432;2024-01-27T07:32:36;12.17;;;4.90;;
20449;SDS011;10384;51.940;8.432;2024-01-27T07:35:02;12.97;;;5.20;;
20449;SDS011;10384;51.940;8.432;2024-01-27T07:37:30;12.77;;;5.10;;
20449;SDS011;10384;51.940;8.432;2024-01-27T07:39:56;10.37;;;4.67;;
20449;SDS011;10384;51.940;8.432;2024-01-27T07:42:22;10.63;;;5.20;;
20449;SDS011;10384;51.940;8.432;2024-01-27T07:44:48;12.73;;;5.00;;
20449;SDS011;10384;51.940;8.432;2024-01-27T07:47:14;10.07;;;4.57;;
20449;SDS011;10384;51.940;8.432;2024-01-27T07:49:40;13.47;;;5.50;;
20449;SDS011;10384;51.940;8.432;2024-01-27T07:52:06;14.60;;;5.33;;
20449;SDS011;10384;51.940;8.432;2024-01-27T07:54:33;13.60;;;5.13;;
20449;SDS011;10384;51.940;8.432;2024-01-27T07:57:03;14.13;;;5.63;;
20449;SDS011;10384;51.940;8.432;2024-01-27T07:59:29;15.20;;;5.70;;
20449;SDS011;10384;51.940;8.432;2024-01-27T08:01:55;12.57;;;5.13;;
20449;SDS011;10384;51.940;8.432;2024-01-27T08:04:21;13.93;;;5.40;;
20449;SDS011;10384;51.940;8.432;2024-01-27T08:06:51;13.80;;;6.17;;
20449;SDS011;10384;51.940;8.432;2024-01-27T08:09:17;14.40;;;5.17;;
20449;SDS011;10384;51.940;8.432;2024-01-27T08:11:43;14.30;;;5.87;;
20449;SDS011;10384;51.940;8.432;2024-01-27T08:14:09;11.37;;;5.30;;
20449;SDS011;10384;51.940;8.432;2024-01-27T08:16:35;12.47;;;5.63;;
20449;SDS011;10384;51.940;8.432;2024-01-27T08:19:02;23.53;;;6.10;;
20449;SDS011;10384;51.940;8.432;2024-01-27T08:21:27;13.73;;;5.60;;
20449;SDS011;10384;51.940;8.432;2024-01-27T08:23:53;15.73;;;5.30;;
20449;SDS011;10384;51.940;8.432;2024-01-27T08:26:22;17.67;;;6.20;;
20449;SDS011;10384;51.940;8.432;2024-01-27T08:28:48;13.43;;;5.97;;
20449;SDS011;10384;51.940;8.432;2024-01-27T08:31:14;15.00;;;6.80;;
20449;SDS011;10384;51.940;8.432;2024-01-27T08:33:40;14.07;;;5.37;;
20449;SDS011;10384;51.940;8.432;2024-01-27T08:36:06;13.70;;;6.03;;
20449;SDS011;10384;51.940;8.432;2024-01-27T08:38:32;15.20;;;6.53;;
20449;SDS011;10384;51.940;8.432;2024-01-27T08:40:58;17.23;;;6.10;;
20449;SDS011;10384;51.940;8.432;2024-01-27T08:43:24;14.70;;;5.97;;
20449;SDS011;10384;51.940;8.432;2024-01-27T08:45:50;18.27;;;7.10;;
20449;SDS011;10384;51.940;8.432;2024-01-27T08:48:16;16.90;;;6.63;;
20449;SDS011;10384;51.940;8.432;2024-01-27T08:50:42;17.83;;;6.30;;
20449;SDS011;10384;51.940;8.432;2024-01-27T08:53:09;16.70;;;6.80;;
20449;SDS011;10384;51.940;8.432;2024-01-27T08:55:35;16.60;;;6.20;;
20449;SDS011;10384;51.940;8.432;2024-01-27T08:58:01;17.97;;;7.50;;
20449;SDS011;10384;51.940;8.432;2024-01-27T09:00:27;17.77;;;7.37;;
20449;SDS011;10384;51.940;8.432;2024-01-27T09:02:53;22.70;;;8.43;;
20449;SDS011;10384;51.940;8.432;2024-01-27T09:05:19;27.77;;;8.97;;
20449;SDS011;10384;51.940;8.432;2024-01-27T09:07:45;17.53;;;6.93;;
20449;SDS011;10384;51.940;8.432;2024-01-27T09:10:11;18.07;;;7.20;;
20449;SDS011;10384;51.940;8.432;2024-01-27T09:12:40;21.27;;;7.20;;
20449;SDS011;10384;51.940;8.432;2024-01-27T09:15:06;23.60;;;7.53;;
20449;SDS011;10384;51.940;8.432;2024-01-27T09:17:32;23.00;;;6.97;;
20449;SDS011;10384;51.940;8.432;2024-01-27T09:19:58;20.37;;;7.83;;
20449;SDS011;10384;51.940;8.432;2024-01-27T09:22:24;20.57;;;7.77;;
20449;SDS011;10384;51.940;8.432;2024-01-27T09:24:51;20.60;;;7.90;;
20449;SDS011;10384;51.940;8.432;2024-01-27T09:27:18;20.50;;;6.77;;
20449;SDS011;10384;51.940;8.432;2024-01-27T09:29:44;18.37;;;6.47;;
20449;SDS011;10384;51.940;8.432;2024-01-27T09:32:10;25.37;;;6.97;;
20449;SDS011;10384;51.940;8.432;2024-01-27T09:34:36;22.83;;;7.17;;
20449;SDS011;10384;51.940;8.432;2024-01-27T09:37:02;17.13;;;7.03;;
20449;SDS011;10384;51.940;8.432;2024-01-27T09:39:28;20.13;;;7.27;;
20449;SDS011;10384;51.940;8.432;2024-01-27T09:41:54;20.20;;;6.30;;
20449;SDS011;10384;51.940;8.432;2024-01-27T09:44:20;20.37;;;6.73;;
20449;SDS011;10384;51.940;8.432;2024-01-27T09:46:47;16.47;;;6.27;;
20449;SDS011;10384;51.940;8.432;2024-01-27T09:49:14;25.27;;;6.53;;
20449;SDS011;10384;51.940;8.432;2024-01-27T09:51:43;22.90;;;6.93;;
20449;SDS011;10384;51.940;8.432;2024-01-27T09:54:09;21.43;;;5.87;;
20449;SDS011;10384;51.940;8.432;2024-01-27T09:56:35;18.20;;;5.83;;
20449;SDS011;10384;51.940;8.432;2024-01-27T09:59:01;20.57;;;6.10;;
20449;SDS011;10384;51.940;8.432;2024-01-27T10:01:27;19.37;;;6.13;;
20449;SDS011;10384;51.940;8.432;2024-01-27T10:03:54;13.93;;;5.90;;
20449;SDS011;10384;51.940;8.432;2024-01-27T10:06:23;18.23;;;5.77;;
20449;SDS011;10384;51.940;8.432;2024-01-27T10:08:53;19.93;;;5.03;;
20449;SDS011;10384;51.940;8.432;2024-01-27T10:11:19;18.60;;;5.00;;
20449;SDS011;10384;51.940;8.432;2024-01-27T10:13:53;10.43;;;4.90;;
20449;SDS011;10384;51.940;8.432;2024-01-27T10:16:19;18.23;;;4.97;;
20449;SDS011;10384;51.940;8.432;2024-01-27T10:18:45;16.80;;;5.40;;
20449;SDS011;10384;51.940;8.432;2024-01-27T10:21:14;16.67;;;5.17;;
20449;SDS011;10384;51.940;8.432;2024-01-27T10:23:40;15.57;;;4.73;;
20449;SDS011;10384;51.940;8.432;2024-01-27T10:26:09;15.33;;;5.03;;
20449;SDS011;10384;51.940;8.432;2024-01-27T10:28:35;15.60;;;4.50;;
20449;SDS011;10384;51.940;8.432;2024-01-27T10:31:10;12.50;;;4.37;;
20449;SDS011;10384;51.940;8.432;2024-01-27T10:33:36;22.50;;;5.13;;
20449;SDS011;10384;51.940;8.432;2024-01-27T10:36:02;15.10;;;4.80;;
20449;SDS011;10384;51.940;8.432;2024-01-27T10:38:35;12.43;;;4.27;;
20449;SDS011;10384;51.940;8.432;2024-01-27T10:41:01;12.67;;;4.33;;
20449;SDS011;10384;51.940;8.432;2024-01-27T10:43:30;21.40;;;5.10;;
20449;SDS011;10384;51.940;8.432;2024-01-27T10:45:57;14.73;;;4.13;;
20449;SDS011;10384;51.940;8.432;2024-01-27T10:48:24;14.73;;;4.17;;
20449;SDS011;10384;51.940;8.432;2024-01-27T10:50:51;19.60;;;4.20;;
20449;SDS011;10384;51.940;8.432;2024-01-27T10:53:26;17.90;;;4.60;;
20449;SDS011;10384;51.940;8.432;2024-01-27T10:55:57;13.30;;;4.83;;
20449;SDS011;10384;51.940;8.432;2024-01-27T10:58:23;12.83;;;3.87;;
20449;SDS011;10384;51.940;8.432;2024-01-27T11:00:53;12.00;;;3.20;;
20449;SDS011;10384;51.940;8.432;2024-01-27T11:03:19;13.10;;;3.80;;
20449;SDS011;10384;51.940;8.432;2024-01-27T11:05:46;11.23;;;3.60;;
20449;SDS011;10384;51.940;8.432;2024-01-27T11:08:13;13.67;;;3.60;;
20449;SDS011;10384;51.940;8.432;2024-01-27T11:10:40;19.63;;;5.40;;
20449;SDS011;10384;51.940;8.432;2024-01-27T11:13:06;16.20;;;5.40;;
20449;SDS011;10384;51.940;8.432;2024-01-27T11:15:33;17.00;;;5.63;;
20449;SDS011;10384;51.940;8.432;2024-01-27T11:17:59;21.67;;;6.07;;
20449;SDS011;10384;51.940;8.432;2024-01-27T11:20:27;15.80;;;4.10;;
20449;SDS011;10384;51.940;8.432;2024-01-27T11:22:53;11.00;;;3.63;;
20449;SDS011;10384;51.940;8.432;2024-01-27T11:25:22;20.03;;;3.57;;
20449;SDS011;10384;51.940;8.432;2024-01-27T11:27:48;8.93;;;3.70;;
20449;SDS011;10384;51.940;8.432;2024-01-27T11:30:25;9.27;;;2.90;;
20449;SDS011;10384;51.940;8.432;2024-01-27T11:32:52;17.90;;;3.57;;
20449;SDS011;10384;51.940;8.432;2024-01-27T11:35:18;8.80;;;3.37;;
20449;SDS011;10384;51.940;8.432;2024-01-27T11:37:44;10.13;;;3.40;;
20449;SDS011;10384;51.940;8.432;2024-01-27T11:40:10;12.30;;;3.07;;
20449;SDS011;10384;51.940;8.432;2024-01-27T11:42:37;11.10;;;3.63;;
20449;SDS011;10384;51.940;8.432;2024-01-27T11:45:03;7.57;;;2.93;;
20449;SDS011;10384;51.940;8.432;2024-01-27T11:47:29;10.77;;;2.90;;
20449;SDS011;10384;51.940;8.432;2024-01-27T11:49:55;13.07;;;3.03;;
20449;SDS011;10384;51.940;8.432;2024-01-27T11:52:23;9.30;;;2.60;;
20449;SDS011;10384;51.940;8.432;2024-01-27T11:54:58;8.53;;;3.13;;
20449;SDS011;10384;51.940;8.432;2024-01-27T11:57:25;10.53;;;2.97;;
20449;SDS011;10384;51.940;8.432;2024-01-27T11:59:52;7.03;;;2.57;;
20449;SDS011;10384;51.940;8.432;2024-01-27T12:02:19;11.60;;;2.70;;
20449;SDS011;10384;51.940;8.432;2024-01-27T12:04:45;9.80;;;3.13;;
20449;SDS011;10384;51.940;8.432;2024-01-27T12:07:12;14.27;;;3.47;;
20449;SDS011;10384;51.940;8.432;2024-01-27T12:09:39;14.63;;;2.70;;
20449;SDS011;10384;51.940;8.432;2024-01-27T12:12:05;10.53;;;2.90;;
20449;SDS011;10384;51.940;8.432;2024-01-27T12:14:47;16.63;;;3.43;;
20449;SDS011;10384;51.940;8.432;2024-01-27T12:17:13;10.23;;;2.77;;
20449;SDS011;10384;51.940;8.432;2024-01-27T12:19:45;10.37;;;2.97;;
20449;SDS011;10384;51.940;8.432;2024-01-27T12:22:23;8.47;;;3.53;;
20449;SDS011;10384;51.940;8.432;2024-01-27T12:24:51;11.90;;;3.33;;
20449;SDS011;10384;51.940;8.432;2024-01-27T12:27:17;8.33;;;3.10;;
20449;SDS011;10384;51.940;8.432;2024-01-27T12:29:43;12.17;;;4.23;;
20449;SDS011;10384;51.940;8.432;2024-01-27T12:32:09;12.03;;;3.07;;
20449;SDS011;10384;51.940;8.432;2024-01-27T12:34:41;11.30;;;2.80;;
20449;SDS011;10384;51.940;8.432;2024-01-27T12:37:11;8.77;;;2.40;;
20449;SDS011;10384;51.940;8.432;2024-01-27T12:39:43;10.00;;;2.67;;
20449;SDS011;10384;51.940;8.432;2024-01-27T12:42:10;15.23;;;2.83;;
20449;SDS011;10384;51.940;8.432;2024-01-27T12:44:36;8.47;;;2.10;;
20449;SDS011;10384;51.940;8.432;2024-01-27T12:47:02;10.53;;;2.40;;
20449;SDS011;10384;51.940;8.432;2024-01-27T12:49:29;11.87;;;2.53;;
20449;SDS011;10384;51.940;8.432;2024-01-27T12:51:55;12.13;;;2.20;;
20449;SDS011;10384;51.940;8.432;2024-01-27T12:54:21;8.97;;;3.37;;
20449;SDS011;10384;51.940;8.432;2024-01-27T12:56:48;8.43;;;2.47;;
20449;SDS011;10384;51.940;8.432;2024-01-27T12:59:14;9.60;;;2.70;;
20449;SDS011;10384;51.940;8.432;2024-01-27T13:01:40;8.70;;;2.50;;
20449;SDS011;10384;51.940;8.432;2024-01-27T13:04:06;11.93;;;2.80;;
20449;SDS011;10384;51.940;8.432;2024-01-27T13:06:32;11.03;;;2.40;;
20449;SDS011;10384;51.940;8.432;2024-01-27T13:08:58;11.57;;;2.40;;
20449;SDS011;10384;51.940;8.432;2024-01-27T13:11:24;12.37;;;2.20;;
20449;SDS011;10384;51.940;8.432;2024-01-27T13:13:50;11.20;;;2.27;;
20449;SDS011;10384;51.940;8.432;2024-01-27T13:16:17;7.23;;;2.17;;
20449;SDS011;10384;51.940;8.432;2024-01-27T13:18:43;7.63;;;2.00;;
20449;SDS011;10384;51.940;8.432;2024-01-27T13:21:11;10.27;;;2.00;;
20449;SDS011;10384;51.940;8.432;2024-01-27T13:23:37;9.70;;;2.80;;
20449;SDS011;10384;51.940;8.432;2024-01-27T13:26:03;6.50;;;2.00;;
20449;SDS011;10384;51.940;8.432;2024-01-27T13:28:29;18.23;;;2.40;;
20449;SDS011;10384;51.940;8.432;2024-01-27T13:30:55;8.20;;;2.13;;
20449;SDS011;10384;51.940;8.432;2024-01-27T13:33:21;8.80;;;2.30;;
20449;SDS011;10384;51.940;8.432;2024-01-27T13:35:47;8.43;;;2.70;;
20449;SDS011;10384;51.940;8.432;2024-01-27T13:38:13;8.50;;;2.70;;
20449;SDS011;10384;51.940;8.432;2024-01-27T13:40:40;13.17;;;2.47;;
20449;SDS011;10384;51.940;8.432;2024-01-27T13:43:07;6.77;;;2.00;;
20449;SDS011;10384;51.940;8.432;2024-01-27T13:45:33;8.60;;;2.93;;
20449;SDS011;10384;51.940;8.432;2024-01-27T13:47:59;12.23;;;2.87;;
20449;SDS011;10384;51.940;8.432;2024-01-27T13:50:25;5.70;;;2.00;;
20449;SDS011;10384;51.940;8.432;2024-01-27T13:52:52;8.50;;;1.80;;
20449;SDS011;10384;51.940;8.432;2024-01-27T13:55:18;12.90;;;2.80;;
20449;SDS011;10384;51.940;8.432;2024-01-27T13:57:46;8.73;;;1.80;;
20449;SDS011;10384;51.940;8.432;2024-01-27T14:00:12;9.87;;;3.17;;
20449;SDS011;10384;51.940;8.432;2024-01-27T14:02:38;8.80;;;1.90;;
20449;SDS011;10384;51.940;8.432;2024-01-27T14:05:05;25.53;;;10.07;;
20449;SDS011;10384;51.940;8.432;2024-01-27T14:07:31;18.63;;;10.37;;
20449;SDS011;10384;51.940;8.432;2024-01-27T14:09:58;15.80;;;9.70;;
20449;SDS011;10384;51.940;8.432;2024-01-27T14:12:24;8.37;;;2.70;;
20449;SDS011;10384;51.940;8.432;2024-01-27T14:14:50;6.90;;;1.90;;
20449;SDS011;10384;51.940;8.432;2024-01-27T14:17:17;6.13;;;2.23;;
20449;SDS011;10384;51.940;8.432;2024-01-27T14:19:45;9.33;;;2.33;;
20449;SDS011;10384;51.940;8.432;2024-01-27T14:22:11;8.93;;;1.50;;
20449;SDS011;10384;51.940;8.432;2024-01-27T14:24:37;9.10;;;2.03;;
20449;SDS011;10384;51.940;8.432;2024-01-27T14:27:05;13.13;;;2.00;;
20449;SDS011;10384;51.940;8.432;2024-01-27T14:29:31;8.50;;;1.97;;
20449;SDS011;10384;51.940;8.432;2024-01-27T14:31:57;11.83;;;1.87;;
20449;SDS011;10384;51.940;8.432;2024-01-27T14:34:23;6.07;;;2.50;;